createdAt,value
2022-08-09T00:04:38.048Z,2.60
2022-08-09T00:09:41.329Z,2.40
2022-08-09T00:14:47.470Z,2.10
2022-08-09T00:19:49.722Z,2.20
2022-08-09T00:24:54.088Z,2.22
2022-08-09T00:30:16.315Z,2.40
2022-08-09T00:35:20.397Z,2.97
2022-08-09T00:40:22.712Z,2.10
2022-08-09T00:45:34.907Z,2.25
2022-08-09T00:50:56.448Z,2.10
2022-08-09T00:56:04.982Z,2.80
2022-08-09T01:01:18.082Z,2.85
2022-08-09T01:12:13.270Z,2.35
2022-08-09T01:17:22.521Z,2.45
2022-08-09T01:22:48.196Z,2.90
2022-08-09T01:27:57.820Z,2.70
2022-08-09T01:33:01.572Z,3.00
2022-08-09T01:38:27.809Z,2.85
2022-08-09T01:43:41.888Z,3.20
2022-08-09T01:48:55.968Z,2.88
2022-08-09T01:54:02.389Z,2.80
2022-08-09T01:59:11.630Z,4.10
2022-08-09T02:04:20.209Z,2.67
2022-08-09T02:09:25.362Z,3.08
2022-08-09T02:14:51.842Z,3.35
2022-08-09T02:19:54.636Z,4.00
2022-08-09T02:25:20.998Z,3.00
2022-08-09T02:30:31.842Z,3.25
2022-08-09T02:36:02.861Z,4.27
2022-08-09T02:41:07.552Z,3.05
2022-08-09T02:46:13.629Z,3.25
2022-08-09T02:51:21.049Z,3.83
2022-08-09T02:56:26.088Z,3.38
2022-08-09T03:01:58.502Z,3.40
2022-08-09T03:07:14.660Z,3.78
2022-08-09T03:12:18.847Z,3.08
2022-08-09T03:17:41.137Z,3.53
2022-08-09T03:23:15.139Z,3.80
2022-08-09T03:28:27.808Z,1.90
2022-08-09T03:33:53.618Z,3.88
2022-08-09T03:38:53.816Z,2.63
2022-08-09T03:44:15.497Z,3.30
2022-08-09T03:49:21.252Z,4.07
2022-08-09T03:54:31.000Z,3.20
2022-08-09T03:59:56.026Z,3.20
2022-08-09T04:05:27.481Z,3.70
2022-08-09T04:10:49.656Z,3.65
2022-08-09T04:16:20.964Z,3.67
2022-08-09T04:21:24.338Z,4.20
2022-08-09T04:26:37.937Z,3.33
2022-08-09T04:31:47.209Z,4.15
2022-08-09T04:36:50.395Z,3.65
2022-08-09T04:41:52.797Z,3.05
2022-08-09T04:46:59.062Z,4.00
2022-08-09T04:52:07.358Z,4.00
2022-08-09T04:57:54.425Z,3.13
2022-08-09T05:03:12.700Z,3.92
2022-08-09T05:08:36.153Z,3.50
2022-08-09T05:13:56.709Z,4.18
2022-08-09T05:19:22.053Z,4.82
2022-08-09T05:29:31.194Z,3.58
2022-08-09T05:34:34.018Z,4.40
2022-08-09T05:39:43.188Z,4.15
2022-08-09T05:44:50.477Z,3.90
2022-08-09T05:50:25.211Z,4.32
2022-08-09T05:55:20.385Z,3.83
2022-08-09T06:00:24.090Z,3.63
2022-08-09T06:05:31.020Z,4.40
2022-08-09T06:10:50.469Z,4.03
2022-08-09T06:15:53.810Z,3.78
2022-08-09T06:20:58.411Z,3.13
2022-08-09T06:26:01.557Z,3.03
2022-08-09T06:31:03.916Z,3.30
2022-08-09T06:36:27.199Z,2.80
2022-08-09T06:42:00.494Z,3.13
2022-08-09T06:46:54.945Z,2.90
2022-08-09T06:52:16.316Z,2.90
2022-08-09T06:57:18.669Z,2.75
2022-08-09T07:02:49.037Z,1.70
2022-08-09T07:08:10.769Z,2.55
2022-08-09T07:13:29.538Z,2.72
2022-08-09T07:18:51.656Z,2.25
2022-08-09T07:23:57.844Z,2.65
2022-08-09T07:29:19.562Z,2.17
2022-08-09T07:34:22.698Z,1.98
2022-08-09T07:39:40.900Z,1.88
2022-08-09T07:44:51.221Z,2.10
2022-08-09T07:50:14.051Z,2.25
2022-08-09T07:55:17.901Z,1.95
2022-08-09T08:00:36.515Z,2.10
2022-08-09T08:05:58.547Z,2.33
2022-08-09T08:11:15.204Z,2.20
2022-08-09T08:16:29.966Z,2.78
2022-08-09T08:21:53.146Z,2.20
2022-08-09T08:26:56.823Z,2.17
2022-08-09T08:32:03.248Z,2.17
2022-08-09T08:37:25.429Z,2.35
2022-08-09T08:42:47.070Z,2.47
2022-08-09T08:47:49.876Z,2.75
2022-08-09T08:53:22.041Z,2.55
2022-08-09T08:58:27.329Z,2.40
2022-08-09T09:03:50.502Z,2.05
2022-08-09T09:08:59.639Z,2.00
2022-08-09T09:14:22.418Z,1.58
2022-08-09T09:19:42.138Z,1.98
2022-08-09T09:24:59.106Z,2.00
2022-08-09T09:30:40.701Z,2.17
2022-08-09T09:36:02.320Z,1.92
2022-08-09T09:41:06.489Z,1.52
2022-08-09T09:46:43.588Z,1.83
2022-08-09T09:52:04.827Z,1.70
2022-08-09T09:58:01.712Z,1.60
2022-08-09T10:02:48.348Z,1.73
2022-08-09T10:08:27.715Z,1.73
2022-08-09T10:13:52.362Z,1.65
2022-08-09T10:18:56.156Z,1.60
2022-08-09T10:24:03.913Z,2.03
2022-08-09T10:29:32.221Z,1.55
2022-08-09T10:34:32.764Z,1.50
2022-08-09T10:39:40.843Z,1.50
2022-08-09T10:50:41.597Z,1.70
2022-08-09T10:55:55.400Z,1.63
2022-08-09T11:03:02.591Z,1.20
2022-08-09T11:06:45.169Z,0.98
2022-08-09T11:11:56.511Z,1.42
2022-08-09T11:16:58.787Z,1.38
2022-08-09T11:22:16.688Z,1.20
2022-08-09T11:28:04.430Z,1.17
2022-08-09T11:33:19.612Z,1.95
2022-08-09T11:38:41.452Z,0.93
2022-08-09T11:43:49.075Z,1.23
2022-08-09T11:48:54.248Z,1.23
2022-08-09T11:54:28.984Z,0.95
2022-08-09T11:59:36.027Z,1.50
2022-08-09T12:05:00.014Z,1.30
2022-08-09T12:10:03.576Z,1.45
2022-08-09T12:15:49.795Z,1.60
2022-08-09T12:20:50.588Z,1.30
2022-08-09T12:25:54.999Z,2.13
2022-08-09T12:30:57.585Z,1.38
2022-08-09T12:36:27.668Z,1.17
2022-08-09T12:41:39.099Z,1.50
2022-08-09T12:46:44.287Z,1.23
2022-08-09T12:52:10.036Z,1.40
2022-08-09T12:57:46.381Z,1.10
2022-08-09T13:02:54.042Z,1.20
2022-08-09T13:08:40.582Z,1.48
2022-08-09T13:14:40.698Z,1.58
2022-08-09T13:19:06.798Z,1.60
2022-08-09T13:24:42.514Z,1.13
2022-08-09T13:30:03.684Z,1.42
2022-08-09T13:35:25.162Z,1.40
2022-08-09T13:41:50.637Z,1.00
2022-08-09T13:46:44.752Z,1.23
2022-08-09T13:51:22.628Z,0.90
2022-08-09T13:56:31.448Z,1.50
2022-08-09T14:02:00.458Z,1.40
2022-08-09T14:07:04.754Z,0.90
2022-08-09T14:12:15.643Z,1.15
2022-08-09T14:17:22.698Z,1.35
2022-08-09T14:22:25.664Z,1.13
2022-08-09T14:27:27.968Z,1.23
2022-08-09T14:32:37.758Z,1.20
2022-08-09T14:37:41.061Z,1.30
2022-08-09T14:43:23.247Z,1.10
2022-08-09T14:48:44.170Z,1.05
2022-08-09T14:53:52.288Z,0.88
2022-08-09T14:58:56.232Z,1.08
2022-08-09T15:03:58.772Z,0.95
2022-08-09T15:10:03.556Z,1.00
2022-08-09T15:14:45.109Z,0.90
2022-08-09T15:19:59.229Z,0.80
2022-08-09T15:25:39.148Z,0.93
2022-08-09T15:31:03.154Z,0.93
2022-08-09T15:36:30.079Z,0.95
2022-08-09T15:41:54.699Z,1.10
2022-08-09T15:46:56.941Z,1.10
2022-08-09T15:52:04.827Z,1.45
2022-08-09T15:57:08.229Z,0.90
2022-08-09T16:02:13.409Z,1.10
2022-08-09T16:07:39.584Z,0.95
2022-08-09T16:12:53.525Z,1.05
2022-08-09T16:17:59.144Z,0.80
2022-08-09T16:23:21.700Z,0.93
2022-08-09T16:28:25.745Z,1.00
2022-08-09T16:33:30.880Z,0.95
2022-08-09T16:38:57.075Z,0.93
2022-08-09T16:44:17.767Z,0.82
2022-08-09T16:50:29.341Z,0.88
2022-08-09T16:55:03.407Z,0.90
2022-08-09T17:08:45.640Z,1.02
2022-08-09T17:13:06.937Z,0.90
2022-08-09T17:18:17.881Z,0.80
2022-08-09T17:24:19.940Z,1.05
2022-08-09T17:28:51.729Z,1.00
2022-08-09T17:34:20.262Z,0.90
2022-08-09T17:39:52.874Z,0.90
2022-08-09T17:44:56.141Z,1.20
2022-08-09T17:50:10.930Z,0.82
2022-08-09T17:55:19.644Z,0.73
2022-08-09T18:00:35.196Z,1.10
2022-08-09T18:06:03.634Z,0.90
2022-08-09T18:11:18.676Z,1.30
2022-08-09T18:16:49.056Z,0.80
2022-08-09T18:22:13.162Z,0.90
2022-08-09T18:28:03.116Z,1.25
2022-08-09T18:32:43.669Z,0.90
2022-08-09T18:37:49.016Z,1.00
2022-08-09T18:43:16.262Z,1.20
2022-08-09T18:48:37.396Z,1.02
2022-08-09T18:54:02.763Z,1.05
2022-08-09T18:59:29.008Z,1.38
2022-08-09T19:04:40.414Z,0.82
2022-08-09T19:10:15.721Z,0.98
2022-08-09T19:15:20.209Z,0.93
2022-08-09T19:20:42.794Z,0.88
2022-08-09T19:26:01.835Z,1.20
2022-08-09T19:31:25.509Z,0.80
2022-08-09T19:36:32.819Z,1.10
2022-08-09T19:41:35.814Z,0.87
2022-08-09T19:46:50.843Z,1.25
2022-08-09T19:51:56.225Z,0.80
2022-08-09T19:56:59.373Z,1.27
2022-08-09T20:02:07.978Z,1.52
2022-08-09T20:07:59.044Z,1.52
2022-08-09T20:13:06.382Z,1.27
2022-08-09T20:18:23.101Z,1.23
2022-08-09T20:23:51.268Z,1.42
2022-08-09T20:28:55.978Z,1.20
2022-08-09T20:34:18.019Z,1.10
2022-08-09T20:40:15.655Z,1.17
2022-08-09T20:46:00.532Z,0.90
2022-08-09T20:50:46.646Z,1.25
2022-08-09T20:56:01.949Z,0.90
2022-08-09T21:01:34.794Z,1.02
2022-08-09T21:06:46.608Z,1.10
2022-08-09T21:18:23.587Z,1.20
2022-08-09T21:22:55.053Z,1.00
2022-08-09T21:27:57.529Z,1.10
2022-08-09T21:33:18.469Z,1.10
2022-08-09T21:38:38.989Z,1.00
2022-08-09T21:43:59.849Z,1.13
2022-08-09T21:49:02.748Z,1.20
2022-08-09T21:54:27.029Z,1.20
2022-08-09T21:59:47.529Z,1.00
2022-08-09T22:04:57.301Z,1.10
2022-08-09T22:15:34.614Z,1.35
2022-08-09T22:20:39.896Z,1.30
2022-08-09T22:26:07.936Z,1.45
2022-08-09T22:31:33.070Z,1.33
2022-08-09T22:36:45.756Z,1.17
2022-08-09T22:41:49.690Z,1.10
2022-08-09T22:48:10.305Z,1.40
2022-08-09T22:52:15.640Z,1.50
2022-08-09T22:57:37.169Z,1.20
2022-08-09T23:02:59.468Z,1.30
2022-08-09T23:08:22.758Z,1.60
2022-08-09T23:13:50.409Z,1.52
2022-08-09T23:19:10.677Z,1.38
2022-08-09T23:24:12.757Z,1.45
2022-08-09T23:29:18.370Z,1.02
2022-08-09T23:34:20.606Z,1.35
2022-08-09T23:39:41.460Z,1.48
2022-08-09T23:44:43.798Z,1.10
2022-08-09T23:50:05.097Z,1.20
2022-08-09T23:55:25.727Z,1.52
